sensor_id;sensor_type;location;lat;lon;timestamp;pressure;altitude;pressure_sealevel;temperature;humidity
25722;BME280;13578;53.450;15.496;2023-07-30T00:00:31;98639.50;;;17.46;100.00
25722;BME280;13578;53.450;15.496;2023-07-30T00:03:32;98640.34;;;17.46;100.00
25722;BME280;13578;53.450;15.496;2023-07-30T00:06:33;98623.28;;;17.43;100.00
25722;BME280;13578;53.450;15.496;2023-07-30T00:09:33;98645.47;;;17.50;100.00
25722;BME280;13578;53.450;15.496;2023-07-30T00:12:34;98645.47;;;17.43;100.00
25722;BME280;13578;53.450;15.496;2023-07-30T00:15:34;98642.25;;;17.39;100.00
25722;BME280;13578;53.450;15.496;2023-07-30T00:18:35;98641.84;;;17.42;100.00
25722;BME280;13578;53.450;15.496;2023-07-30T00:21:36;98655.91;;;17.48;100.00
25722;BME280;13578;53.450;15.496;2023-07-30T00:24:36;98656.31;;;17.44;100.00
25722;BME280;13578;53.450;15.496;2023-07-30T00:27:37;98672.13;;;17.44;100.00
25722;BME280;13578;53.450;15.496;2023-07-30T00:30:38;98676.19;;;17.41;100.00
25722;BME280;13578;53.450;15.496;2023-07-30T00:33:38;98670.41;;;17.43;100.00
25722;BME280;13578;53.450;15.496;2023-07-30T00:36:39;98671.91;;;17.39;100.00
25722;BME280;13578;53.450;15.496;2023-07-30T00:39:39;98676.41;;;17.40;100.00
25722;BME280;13578;53.450;15.496;2023-07-30T00:42:40;98680.22;;;17.39;100.00
25722;BME280;13578;53.450;15.496;2023-07-30T00:45:42;98674.25;;;17.42;100.00
25722;BME280;13578;53.450;15.496;2023-07-30T00:48:44;98672.53;;;17.41;100.00
25722;BME280;13578;53.450;15.496;2023-07-30T00:51:45;98682.78;;;17.40;100.00
25722;BME280;13578;53.450;15.496;2023-07-30T00:54:49;98675.53;;;17.39;100.00
25722;BME280;13578;53.450;15.496;2023-07-30T00:57:50;98669.53;;;17.36;100.00
25722;BME280;13578;53.450;15.496;2023-07-30T01:00:53;98680.63;;;17.36;100.00
25722;BME280;13578;53.450;15.496;2023-07-30T01:03:54;98682.13;;;17.32;100.00
25722;BME280;13578;53.450;15.496;2023-07-30T01:06:55;98685.75;;;17.32;100.00
25722;BME280;13578;53.450;15.496;2023-07-30T01:09:56;98684.47;;;17.28;100.00
25722;BME280;13578;53.450;15.496;2023-07-30T01:13:01;98681.03;;;17.26;100.00
25722;BME280;13578;53.450;15.496;2023-07-30T01:16:03;98684.03;;;17.24;100.00
25722;BME280;13578;53.450;15.496;2023-07-30T01:19:05;98691.28;;;17.25;100.00
25722;BME280;13578;53.450;15.496;2023-07-30T01:22:06;98683.16;;;17.24;100.00
25722;BME280;13578;53.450;15.496;2023-07-30T01:25:07;98678.91;;;17.21;100.00
25722;BME280;13578;53.450;15.496;2023-07-30T01:28:09;98689.97;;;17.21;100.00
25722;BME280;13578;53.450;15.496;2023-07-30T01:31:15;98686.78;;;17.18;100.00
25722;BME280;13578;53.450;15.496;2023-07-30T01:34:17;98685.28;;;17.15;100.00
25722;BME280;13578;53.450;15.496;2023-07-30T01:37:20;98688.28;;;17.13;100.00
25722;BME280;13578;53.450;15.496;2023-07-30T01:40:21;98687.00;;;17.16;100.00
25722;BME280;13578;53.450;15.496;2023-07-30T01:43:22;98692.53;;;17.16;100.00
25722;BME280;13578;53.450;15.496;2023-07-30T01:46:23;98694.66;;;17.14;100.00
25722;BME280;13578;53.450;15.496;2023-07-30T01:49:23;98693.59;;;17.15;100.00
25722;BME280;13578;53.450;15.496;2023-07-30T01:52:24;98694.66;;;17.14;100.00
25722;BME280;13578;53.450;15.496;2023-07-30T01:55:25;98696.38;;;17.15;100.00
25722;BME280;13578;53.450;15.496;2023-07-30T01:58:25;98702.31;;;17.12;100.00
25722;BME280;13578;53.450;15.496;2023-07-30T02:01:26;98693.16;;;17.11;100.00
25722;BME280;13578;53.450;15.496;2023-07-30T02:04:27;98689.09;;;17.14;100.00
25722;BME280;13578;53.450;15.496;2023-07-30T02:07:28;98684.41;;;17.14;100.00
25722;BME280;13578;53.450;15.496;2023-07-30T02:10:28;98688.66;;;17.10;100.00
25722;BME280;13578;53.450;15.496;2023-07-30T02:13:29;98683.97;;;17.04;100.00
25722;BME280;13578;53.450;15.496;2023-07-30T02:16:30;98688.44;;;17.05;100.00
25722;BME280;13578;53.450;15.496;2023-07-30T02:19:30;98691.22;;;17.05;100.00
25722;BME280;13578;53.450;15.496;2023-07-30T02:22:31;98693.56;;;17.02;100.00
25722;BME280;13578;53.450;15.496;2023-07-30T02:25:31;98701.88;;;17.02;100.00
25722;BME280;13578;53.450;15.496;2023-07-30T02:28:32;98705.03;;;16.98;100.00
25722;BME280;13578;53.450;15.496;2023-07-30T02:31:33;98700.75;;;16.96;100.00
25722;BME280;13578;53.450;15.496;2023-07-30T02:34:33;98709.28;;;16.94;100.00
25722;BME280;13578;53.450;15.496;2023-07-30T02:37:34;98707.38;;;16.95;100.00
25722;BME280;13578;53.450;15.496;2023-07-30T02:40:35;98705.19;;;16.90;100.00
25722;BME280;13578;53.450;15.496;2023-07-30T02:43:35;98708.56;;;16.86;100.00
25722;BME280;13578;53.450;15.496;2023-07-30T02:46:36;98706.88;;;16.85;100.00
25722;BME280;13578;53.450;15.496;2023-07-30T02:49:37;98701.50;;;16.76;100.00
25722;BME280;13578;53.450;15.496;2023-07-30T02:52:37;98700.41;;;16.71;100.00
25722;BME280;13578;53.450;15.496;2023-07-30T02:55:38;98708.09;;;16.75;100.00
25722;BME280;13578;53.450;15.496;2023-07-30T02:58:38;98710.66;;;16.77;100.00
25722;BME280;13578;53.450;15.496;2023-07-30T03:01:39;98709.59;;;16.78;100.00
25722;BME280;13578;53.450;15.496;2023-07-30T03:04:40;98700.41;;;16.71;100.00
25722;BME280;13578;53.450;15.496;2023-07-30T03:07:40;98700.41;;;16.71;100.00
25722;BME280;13578;53.450;15.496;2023-07-30T03:10:41;98701.47;;;16.70;100.00
25722;BME280;13578;53.450;15.496;2023-07-30T03:13:42;98697.41;;;16.72;100.00
25722;BME280;13578;53.450;15.496;2023-07-30T03:16:42;98684.63;;;16.71;100.00
25722;BME280;13578;53.450;15.496;2023-07-30T03:19:43;98696.97;;;16.68;100.00
25722;BME280;13578;53.450;15.496;2023-07-30T03:22:44;98704.88;;;16.72;100.00
25722;BME280;13578;53.450;15.496;2023-07-30T03:25:44;98710.66;;;16.70;100.00
25722;BME280;13578;53.450;15.496;2023-07-30T03:28:45;98724.50;;;16.70;100.00
25722;BME280;13578;53.450;15.496;2023-07-30T03:31:45;98727.03;;;16.72;100.00
25722;BME280;13578;53.450;15.496;2023-07-30T03:34:46;98730.88;;;16.71;100.00
25722;BME280;13578;53.450;15.496;2023-07-30T03:37:47;98739.56;;;16.67;100.00
25722;BME280;13578;53.450;15.496;2023-07-30T03:40:47;98737.47;;;16.70;100.00
25722;BME280;13578;53.450;15.496;2023-07-30T03:43:48;98740.66;;;16.66;100.00
25722;BME280;13578;53.450;15.496;2023-07-30T03:46:48;98747.88;;;16.67;100.00
25722;BME280;13578;53.450;15.496;2023-07-30T03:49:49;98745.31;;;16.66;100.00
25722;BME280;13578;53.450;15.496;2023-07-30T03:52:50;98757.91;;;16.68;100.00
25722;BME280;13578;53.450;15.496;2023-07-30T03:55:50;98772.19;;;16.65;100.00
25722;BME280;13578;53.450;15.496;2023-07-30T03:58:51;98780.88;;;16.62;100.00
25722;BME280;13578;53.450;15.496;2023-07-30T04:01:52;98776.66;;;16.66;100.00
25722;BME280;13578;53.450;15.496;2023-07-30T04:04:52;98774.91;;;16.59;100.00
25722;BME280;13578;53.450;15.496;2023-07-30T04:07:53;98780.44;;;16.59;100.00
25722;BME280;13578;53.450;15.496;2023-07-30T04:10:53;98773.19;;;16.58;100.00
25722;BME280;13578;53.450;15.496;2023-07-30T04:13:54;98777.00;;;16.57;100.00
25722;BME280;13578;53.450;15.496;2023-07-30T04:16:55;98778.25;;;16.54;100.00
25722;BME280;13578;53.450;15.496;2023-07-30T04:19:55;98785.13;;;16.58;100.00
25722;BME280;13578;53.450;15.496;2023-07-30T04:22:56;98779.97;;;16.55;100.00
25722;BME280;13578;53.450;15.496;2023-07-30T04:25:57;98799.59;;;16.60;100.00
25722;BME280;13578;53.450;15.496;2023-07-30T04:28:58;98802.38;;;16.60;100.00
25722;BME280;13578;53.450;15.496;2023-07-30T04:31:58;98815.38;;;16.60;100.00
25722;BME280;13578;53.450;15.496;2023-07-30T04:35:00;98815.78;;;16.57;100.00
25722;BME280;13578;53.450;15.496;2023-07-30T04:38:01;98823.91;;;16.58;100.00
25722;BME280;13578;53.450;15.496;2023-07-30T04:41:02;98836.69;;;16.59;100.00
25722;BME280;13578;53.450;15.496;2023-07-30T04:44:02;98832.84;;;16.60;100.00
25722;BME280;13578;53.450;15.496;2023-07-30T04:47:03;98828.56;;;16.58;100.00
25722;BME280;13578;53.450;15.496;2023-07-30T04:50:04;98839.25;;;16.61;100.00
25722;BME280;13578;53.450;15.496;2023-07-30T04:53:05;98840.53;;;16.58;100.00
25722;BME280;13578;53.450;15.496;2023-07-30T04:56:05;98838.44;;;16.67;100.00
25722;BME280;13578;53.450;15.496;2023-07-30T04:59:06;98840.75;;;16.63;100.00
25722;BME280;13578;53.450;15.496;2023-07-30T05:02:07;98849.53;;;16.67;100.00
25722;BME280;13578;53.450;15.496;2023-07-30T05:05:07;98856.78;;;16.68;100.00
25722;BME280;13578;53.450;15.496;2023-07-30T05:08:08;98847.88;;;16.73;100.00
25722;BME280;13578;53.450;15.496;2023-07-30T05:11:09;98857.00;;;16.66;100.00
25722;BME280;13578;53.450;15.496;2023-07-30T05:14:09;98867.00;;;16.67;100.00
25722;BME280;13578;53.450;15.496;2023-07-30T05:17:10;98858.94;;;16.73;100.00
25722;BME280;13578;53.450;15.496;2023-07-30T05:20:11;98872.38;;;16.76;100.00
25722;BME280;13578;53.450;15.496;2023-07-30T05:23:11;98880.91;;;16.74;100.00
25722;BME280;13578;53.450;15.496;2023-07-30T05:26:12;98893.47;;;16.70;100.00
25722;BME280;13578;53.450;15.496;2023-07-30T05:29:13;98878.13;;;16.74;100.00
25722;BME280;13578;53.450;15.496;2023-07-30T05:32:13;98892.19;;;16.73;100.00
25722;BME280;13578;53.450;15.496;2023-07-30T05:35:14;98886.22;;;16.76;100.00
25722;BME280;13578;53.450;15.496;2023-07-30T05:38:15;98898.28;;;16.90;100.00
25722;BME280;13578;53.450;15.496;2023-07-30T05:41:16;98905.72;;;16.89;100.00
25722;BME280;13578;53.450;15.496;2023-07-30T05:44:17;98905.47;;;17.06;100.00
25722;BME280;13578;53.450;15.496;2023-07-30T05:47:17;98910.63;;;17.15;100.00
25722;BME280;13578;53.450;15.496;2023-07-30T05:50:18;98905.66;;;17.33;100.00
25722;BME280;13578;53.450;15.496;2023-07-30T05:53:18;98912.28;;;17.38;100.00
25722;BME280;13578;53.450;15.496;2023-07-30T05:56:19;98922.91;;;17.35;100.00
25722;BME280;13578;53.450;15.496;2023-07-30T05:59:20;98929.97;;;17.37;100.00
25722;BME280;13578;53.450;15.496;2023-07-30T06:02:21;98938.34;;;17.44;100.00
25722;BME280;13578;53.450;15.496;2023-07-30T06:05:21;98925.66;;;17.63;100.00
25722;BME280;13578;53.450;15.496;2023-07-30T06:08:22;98947.41;;;17.59;100.00
25722;BME280;13578;53.450;15.496;2023-07-30T06:11:22;98956.84;;;17.72;100.00
25722;BME280;13578;53.450;15.496;2023-07-30T06:14:24;98971.66;;;17.92;100.00
25722;BME280;13578;53.450;15.496;2023-07-30T06:17:25;98987.00;;;18.23;100.00
25722;BME280;13578;53.450;15.496;2023-07-30T06:20:25;99020.94;;;18.19;100.00
25722;BME280;13578;53.450;15.496;2023-07-30T06:23:26;99036.91;;;18.10;100.00
25722;BME280;13578;53.450;15.496;2023-07-30T06:26:26;99035.88;;;18.18;100.00
25722;BME280;13578;53.450;15.496;2023-07-30T06:29:27;99028.63;;;18.17;100.00
25722;BME280;13578;53.450;15.496;2023-07-30T06:32:28;99032.53;;;18.29;100.00
25722;BME280;13578;53.450;15.496;2023-07-30T06:35:28;99046.84;;;18.33;100.00
25722;BME280;13578;53.450;15.496;2023-07-30T06:38:29;99046.22;;;18.37;100.00
25722;BME280;13578;53.450;15.496;2023-07-30T06:41:30;99057.59;;;18.49;100.00
25722;BME280;13578;53.450;15.496;2023-07-30T06:44:30;99055.94;;;18.62;100.00
25722;BME280;13578;53.450;15.496;2023-07-30T06:47:31;99066.66;;;18.85;100.00
25722;BME280;13578;53.450;15.496;2023-07-30T06:50:32;99096.38;;;18.91;100.00
25722;BME280;13578;53.450;15.496;2023-07-30T06:53:32;99106.13;;;19.15;100.00
25722;BME280;13578;53.450;15.496;2023-07-30T06:56:33;99117.69;;;19.19;100.00
25722;BME280;13578;53.450;15.496;2023-07-30T06:59:34;99123.25;;;19.26;100.00
25722;BME280;13578;53.450;15.496;2023-07-30T07:02:34;99127.53;;;19.35;100.00
25722;BME280;13578;53.450;15.496;2023-07-30T07:05:35;99125.81;;;19.47;100.00
25722;BME280;13578;53.450;15.496;2023-07-30T07:08:35;99131.19;;;19.42;100.00
25722;BME280;13578;53.450;15.496;2023-07-30T07:11:36;99138.06;;;19.60;100.00
25722;BME280;13578;53.450;15.496;2023-07-30T07:14:37;99149.81;;;19.62;100.00
25722;BME280;13578;53.450;15.496;2023-07-30T07:17:39;99155.81;;;19.79;100.00
25722;BME280;13578;53.450;15.496;2023-07-30T07:20:40;99159.69;;;19.91;100.00
25722;BME280;13578;53.450;15.496;2023-07-30T07:23:41;99172.53;;;19.86;100.00
25722;BME280;13578;53.450;15.496;2023-07-30T07:26:41;99179.38;;;19.83;100.00
25722;BME280;13578;53.450;15.496;2023-07-30T07:29:42;99178.97;;;19.99;100.00
25722;BME280;13578;53.450;15.496;2023-07-30T07:32:43;99174.69;;;20.10;100.00
25722;BME280;13578;53.450;15.496;2023-07-30T07:35:43;99177.25;;;20.12;100.00
25722;BME280;13578;53.450;15.496;2023-07-30T07:38:44;99178.09;;;20.12;100.00
25722;BME280;13578;53.450;15.496;2023-07-30T07:41:44;99178.94;;;20.20;100.00
25722;BME280;13578;53.450;15.496;2023-07-30T07:44:45;99181.97;;;20.11;100.00
25722;BME280;13578;53.450;15.496;2023-07-30T07:47:46;99173.81;;;19.96;100.00
25722;BME280;13578;53.450;15.496;2023-07-30T07:50:47;99177.22;;;20.25;100.00
25722;BME280;13578;53.450;15.496;2023-07-30T07:53:47;99174.63;;;20.30;100.00
25722;BME280;13578;53.450;15.496;2023-07-30T07:56:48;99174.25;;;20.00;100.00
25722;BME280;13578;53.450;15.496;2023-07-30T07:59:48;99174.88;;;20.22;100.00
25722;BME280;13578;53.450;15.496;2023-07-30T08:02:49;99181.91;;;20.38;100.00
25722;BME280;13578;53.450;15.496;2023-07-30T08:05:50;99180.16;;;20.51;100.00
25722;BME280;13578;53.450;15.496;2023-07-30T08:08:50;99181.00;;;20.65;100.00
25722;BME280;13578;53.450;15.496;2023-07-30T08:11:51;99176.31;;;20.52;100.00
25722;BME280;13578;53.450;15.496;2023-07-30T08:14:51;99184.47;;;20.46;100.00
25722;BME280;13578;53.450;15.496;2023-07-30T08:17:52;99173.72;;;20.57;100.00
25722;BME280;13578;53.450;15.496;2023-07-30T08:20:53;99174.97;;;20.81;100.00
25722;BME280;13578;53.450;15.496;2023-07-30T08:23:53;99175.09;;;21.00;100.00
25722;BME280;13578;53.450;15.496;2023-07-30T08:26:54;99175.09;;;20.93;100.00
25722;BME280;13578;53.450;15.496;2023-07-30T08:29:54;99181.72;;;21.05;100.00
25722;BME280;13578;53.450;15.496;2023-07-30T08:32:55;99170.50;;;21.12;100.00
25722;BME280;13578;53.450;15.496;2023-07-30T08:35:56;99174.34;;;21.18;100.00
25722;BME280;13578;53.450;15.496;2023-07-30T08:38:57;99176.09;;;21.12;100.00
25722;BME280;13578;53.450;15.496;2023-07-30T08:41:58;99182.28;;;21.21;100.00
25722;BME280;13578;53.450;15.496;2023-07-30T08:44:59;99186.75;;;21.29;100.00
25722;BME280;13578;53.450;15.496;2023-07-30T08:48:00;99193.41;;;21.27;100.00
25722;BME280;13578;53.450;15.496;2023-07-30T08:51:00;99191.25;;;21.23;100.00
25722;BME280;13578;53.450;15.496;2023-07-30T08:54:02;99187.38;;;20.92;100.00
25722;BME280;13578;53.450;15.496;2023-07-30T08:57:03;99192.78;;;20.60;100.00
25722;BME280;13578;53.450;15.496;2023-07-30T09:00:06;99192.94;;;20.92;100.00
25722;BME280;13578;53.450;15.496;2023-07-30T09:03:14;99183.91;;;21.35;100.00
25722;BME280;13578;53.450;15.496;2023-07-30T09:06:15;99190.47;;;21.54;100.00
25722;BME280;13578;53.450;15.496;2023-07-30T09:09:16;99191.50;;;21.60;100.00
25722;BME280;13578;53.450;15.496;2023-07-30T09:12:17;99179.72;;;21.58;100.00
25722;BME280;13578;53.450;15.496;2023-07-30T09:15:18;99187.63;;;21.22;100.00
25722;BME280;13578;53.450;15.496;2023-07-30T09:18:19;99186.38;;;21.18;100.00
25722;BME280;13578;53.450;15.496;2023-07-30T09:21:37;99185.69;;;21.23;100.00
25722;BME280;13578;53.450;15.496;2023-07-30T09:24:43;99194.53;;;21.52;100.00
25722;BME280;13578;53.450;15.496;2023-07-30T09:27:50;99186.91;;;21.72;100.00
25722;BME280;13578;53.450;15.496;2023-07-30T09:30:52;99187.53;;;21.74;100.00
25722;BME280;13578;53.450;15.496;2023-07-30T09:33:59;99171.03;;;21.34;100.00
25722;BME280;13578;53.450;15.496;2023-07-30T09:37:01;99186.97;;;21.66;100.00
25722;BME280;13578;53.450;15.496;2023-07-30T09:40:13;99183.50;;;21.96;100.00
25722;BME280;13578;53.450;15.496;2023-07-30T09:43:14;99182.31;;;22.10;100.00
25722;BME280;13578;53.450;15.496;2023-07-30T09:46:14;99183.34;;;22.16;100.00
25722;BME280;13578;53.450;15.496;2023-07-30T09:49:16;99195.00;;;22.31;100.00
25722;BME280;13578;53.450;15.496;2023-07-30T09:52:17;99188.94;;;22.34;100.00
25722;BME280;13578;53.450;15.496;2023-07-30T09:55:18;99186.34;;;22.40;100.00
25722;BME280;13578;53.450;15.496;2023-07-30T09:58:21;99191.03;;;22.46;100.00
25722;BME280;13578;53.450;15.496;2023-07-30T10:01:24;99189.53;;;22.43;100.00
25722;BME280;13578;53.450;15.496;2023-07-30T10:04:26;99168.81;;;22.26;100.00
25722;BME280;13578;53.450;15.496;2023-07-30T10:07:29;99169.41;;;21.84;100.00
25722;BME280;13578;53.450;15.496;2023-07-30T10:10:31;99166.63;;;21.52;100.00
25722;BME280;13578;53.450;15.496;2023-07-30T10:13:32;99168.56;;;21.51;100.00
25722;BME280;13578;53.450;15.496;2023-07-30T10:16:33;99166.19;;;21.55;100.00
25722;BME280;13578;53.450;15.496;2023-07-30T10:19:34;99159.13;;;21.84;100.00
25722;BME280;13578;53.450;15.496;2023-07-30T10:22:38;99149.56;;;22.17;100.00
25722;BME280;13578;53.450;15.496;2023-07-30T10:25:48;99145.97;;;22.10;100.00
25722;BME280;13578;53.450;15.496;2023-07-30T10:28:49;99153.94;;;22.32;100.00
25722;BME280;13578;53.450;15.496;2023-07-30T10:31:55;99154.91;;;22.63;100.00
25722;BME280;13578;53.450;15.496;2023-07-30T10:34:56;99162.41;;;22.99;100.00
25722;BME280;13578;53.450;15.496;2023-07-30T10:37:58;99160.63;;;23.36;100.00
25722;BME280;13578;53.450;15.496;2023-07-30T10:41:04;99149.53;;;23.59;100.00
25722;BME280;13578;53.450;15.496;2023-07-30T10:44:04;99155.25;;;23.53;100.00
25722;BME280;13578;53.450;15.496;2023-07-30T10:47:05;99151.53;;;23.40;100.00
25722;BME280;13578;53.450;15.496;2023-07-30T10:50:06;99146.56;;;23.42;100.00
25722;BME280;13578;53.450;15.496;2023-07-30T10:53:08;99147.59;;;23.72;100.00
25722;BME280;13578;53.450;15.496;2023-07-30T10:56:09;99128.75;;;23.79;100.00
25722;BME280;13578;53.450;15.496;2023-07-30T10:59:11;99150.66;;;23.82;100.00
25722;BME280;13578;53.450;15.496;2023-07-30T11:02:12;99122.59;;;24.01;100.00
25722;BME280;13578;53.450;15.496;2023-07-30T11:05:13;99124.72;;;23.87;100.00
25722;BME280;13578;53.450;15.496;2023-07-30T11:08:19;99125.38;;;23.46;100.00
25722;BME280;13578;53.450;15.496;2023-07-30T11:11:20;99136.06;;;23.38;100.00
25722;BME280;13578;53.450;15.496;2023-07-30T11:14:22;99141.00;;;23.54;100.00
25722;BME280;13578;53.450;15.496;2023-07-30T11:17:25;99134.09;;;23.69;100.00
25722;BME280;13578;53.450;15.496;2023-07-30T11:20:26;99120.13;;;23.92;100.00
25722;BME280;13578;53.450;15.496;2023-07-30T11:23:27;99125.19;;;23.84;100.00
25722;BME280;13578;53.450;15.496;2023-07-30T11:26:28;99103.31;;;23.92;100.00
25722;BME280;13578;53.450;15.496;2023-07-30T11:29:28;99111.72;;;24.16;100.00
25722;BME280;13578;53.450;15.496;2023-07-30T11:32:30;99102.84;;;24.19;100.00
25722;BME280;13578;53.450;15.496;2023-07-30T11:35:31;99098.41;;;23.76;100.00
25722;BME280;13578;53.450;15.496;2023-07-30T11:38:32;99095.25;;;23.72;100.00
25722;BME280;13578;53.450;15.496;2023-07-30T11:41:33;99112.50;;;23.57;100.00
25722;BME280;13578;53.450;15.496;2023-07-30T11:44:36;99099.72;;;23.50;100.00
25722;BME280;13578;53.450;15.496;2023-07-30T11:47:38;99126.06;;;23.84;100.00
25722;BME280;13578;53.450;15.496;2023-07-30T11:50:51;99112.72;;;23.44;100.00
25722;BME280;13578;53.450;15.496;2023-07-30T11:53:53;99082.47;;;23.22;100.00
25722;BME280;13578;53.450;15.496;2023-07-30T11:56:55;99081.69;;;23.15;100.00
25722;BME280;13578;53.450;15.496;2023-07-30T11:59:56;99087.97;;;22.98;100.00
25722;BME280;13578;53.450;15.496;2023-07-30T12:03:02;99103.66;;;22.99;100.00
25722;BME280;13578;53.450;15.496;2023-07-30T12:06:06;99111.63;;;23.45;100.00
25722;BME280;13578;53.450;15.496;2023-07-30T12:09:14;99099.72;;;23.50;100.00
25722;BME280;13578;53.450;15.496;2023-07-30T12:12:15;99093.09;;;23.32;100.00
25722;BME280;13578;53.450;15.496;2023-07-30T12:15:15;99092.16;;;23.38;100.00
25722;BME280;13578;53.450;15.496;2023-07-30T12:18:16;99079.88;;;23.51;100.00
25722;BME280;13578;53.450;15.496;2023-07-30T12:21:16;99080.59;;;23.58;100.00
25722;BME280;13578;53.450;15.496;2023-07-30T12:24:17;99087.38;;;23.93;100.00
25722;BME280;13578;53.450;15.496;2023-07-30T12:27:18;99070.31;;;24.06;100.00
25722;BME280;13578;53.450;15.496;2023-07-30T12:30:18;99082.97;;;24.21;100.00
25722;BME280;13578;53.450;15.496;2023-07-30T12:33:19;99087.84;;;24.25;100.00
25722;BME280;13578;53.450;15.496;2023-07-30T12:36:19;99076.00;;;24.23;100.00
25722;BME280;13578;53.450;15.496;2023-07-30T12:39:20;99087.78;;;24.61;100.00
25722;BME280;13578;53.450;15.496;2023-07-30T12:42:20;99023.69;;;24.41;100.00
25722;BME280;13578;53.450;15.496;2023-07-30T12:45:21;99042.78;;;24.68;100.00
25722;BME280;13578;53.450;15.496;2023-07-30T12:48:22;99042.91;;;24.73;100.00
25722;BME280;13578;53.450;15.496;2023-07-30T12:51:22;99055.69;;;24.98;100.00
25722;BME280;13578;53.450;15.496;2023-07-30T12:54:23;99008.03;;;25.15;88.29
25722;BME280;13578;53.450;15.496;2023-07-30T12:57:24;98982.31;;;24.89;78.63
25722;BME280;13578;53.450;15.496;2023-07-30T13:00:24;98997.25;;;24.78;81.62
25722;BME280;13578;53.450;15.496;2023-07-30T13:03:25;99004.19;;;24.75;82.56
25722;BME280;13578;53.450;15.496;2023-07-30T13:06:25;99047.97;;;24.76;97.69
25722;BME280;13578;53.450;15.496;2023-07-30T13:09:28;99052.66;;;24.58;100.00
25722;BME280;13578;53.450;15.496;2023-07-30T13:12:28;99052.44;;;24.48;100.00
25722;BME280;13578;53.450;15.496;2023-07-30T13:15:29;99059.41;;;24.46;100.00
25722;BME280;13578;53.450;15.496;2023-07-30T13:18:30;99044.47;;;24.16;100.00
25722;BME280;13578;53.450;15.496;2023-07-30T13:21:30;99016.59;;;23.98;99.53
25722;BME280;13578;53.450;15.496;2023-07-30T13:24:31;99021.38;;;23.97;97.96
25722;BME280;13578;53.450;15.496;2023-07-30T13:27:32;99038.00;;;23.80;100.00
25722;BME280;13578;53.450;15.496;2023-07-30T13:30:32;99054.22;;;23.90;100.00
25722;BME280;13578;53.450;15.496;2023-07-30T13:33:33;99029.78;;;23.97;100.00
25722;BME280;13578;53.450;15.496;2023-07-30T13:36:34;99038.28;;;24.02;100.00
25722;BME280;13578;53.450;15.496;2023-07-30T13:39:34;99038.91;;;24.04;100.00
25722;BME280;13578;53.450;15.496;2023-07-30T13:42:35;99042.91;;;23.97;100.00
25722;BME280;13578;53.450;15.496;2023-07-30T13:45:35;99042.28;;;23.94;100.00
25722;BME280;13578;53.450;15.496;2023-07-30T13:48:36;99052.75;;;24.11;100.00
25722;BME280;13578;53.450;15.496;2023-07-30T13:51:36;99047.59;;;24.32;100.00
25722;BME280;13578;53.450;15.496;2023-07-30T13:54:37;99050.31;;;24.26;100.00
25722;BME280;13578;53.450;15.496;2023-07-30T13:57:38;99046.50;;;24.33;100.00
25722;BME280;13578;53.450;15.496;2023-07-30T14:00:40;99027.91;;;24.03;96.29
25722;BME280;13578;53.450;15.496;2023-07-30T14:03:43;99045.94;;;24.19;100.00
25722;BME280;13578;53.450;15.496;2023-07-30T14:06:44;99034.38;;;24.03;100.00
25722;BME280;13578;53.450;15.496;2023-07-30T14:09:45;99046.91;;;23.89;100.00
25722;BME280;13578;53.450;15.496;2023-07-30T14:12:46;99047.06;;;24.06;100.00
25722;BME280;13578;53.450;15.496;2023-07-30T14:15:46;99063.84;;;24.30;100.00
25722;BME280;13578;53.450;15.496;2023-07-30T14:18:47;99051.41;;;24.25;100.00
25722;BME280;13578;53.450;15.496;2023-07-30T14:21:48;99035.59;;;24.07;100.00
25722;BME280;13578;53.450;15.496;2023-07-30T14:24:48;99037.88;;;23.75;100.00
25722;BME280;13578;53.450;15.496;2023-07-30T14:27:49;99043.47;;;23.51;99.90
25722;BME280;13578;53.450;15.496;2023-07-30T14:30:50;99060.16;;;23.46;100.00
25722;BME280;13578;53.450;15.496;2023-07-30T14:33:50;99056.13;;;23.54;100.00
25722;BME280;13578;53.450;15.496;2023-07-30T14:36:51;99014.38;;;23.52;91.11
25722;BME280;13578;53.450;15.496;2023-07-30T14:39:51;99035.44;;;23.43;94.52
25722;BME280;13578;53.450;15.496;2023-07-30T14:42:52;99051.03;;;23.51;100.00
25722;BME280;13578;53.450;15.496;2023-07-30T14:45:53;99048.84;;;23.53;98.32
25722;BME280;13578;53.450;15.496;2023-07-30T14:48:54;99034.97;;;23.58;97.63
25722;BME280;13578;53.450;15.496;2023-07-30T14:51:54;99011.34;;;23.66;89.32
25722;BME280;13578;53.450;15.496;2023-07-30T14:54:55;99028.28;;;23.71;91.59
25722;BME280;13578;53.450;15.496;2023-07-30T14:57:55;99028.50;;;23.69;93.64
25722;BME280;13578;53.450;15.496;2023-07-30T15:00:56;99012.69;;;23.63;89.33
25722;BME280;13578;53.450;15.496;2023-07-30T15:03:56;99008.91;;;23.57;90.96
25722;BME280;13578;53.450;15.496;2023-07-30T15:06:57;99000.63;;;23.51;87.05
25722;BME280;13578;53.450;15.496;2023-07-30T15:09:58;99035.94;;;23.52;94.65
25722;BME280;13578;53.450;15.496;2023-07-30T15:12:58;99032.28;;;23.51;92.14
25722;BME280;13578;53.450;15.496;2023-07-30T15:15:59;99025.94;;;23.44;92.22
25722;BME280;13578;53.450;15.496;2023-07-30T15:18:59;99023.13;;;23.44;90.68
25722;BME280;13578;53.450;15.496;2023-07-30T15:22:00;99026.09;;;23.49;94.11
25722;BME280;13578;53.450;15.496;2023-07-30T15:25:01;99031.06;;;23.47;95.28
25722;BME280;13578;53.450;15.496;2023-07-30T15:28:03;99032.78;;;23.48;93.60
25722;BME280;13578;53.450;15.496;2023-07-30T15:31:04;99011.94;;;23.44;94.64
25722;BME280;13578;53.450;15.496;2023-07-30T15:34:05;99018.63;;;23.31;92.43